sensor_id;sensor_type;location;lat;lon;timestamp;P1;durP1;ratioP1;P2;durP2;ratioP2
57297;SDS011;43147;50.972;18.210;2023-03-24T00:01:20;11.50;;;7.20;;
57297;SDS011;43147;50.972;18.210;2023-03-24T00:03:46;7.10;;;4.20;;
57297;SDS011;43147;50.972;18.210;2023-03-24T00:06:16;9.00;;;4.70;;
57297;SDS011;43147;50.972;18.210;2023-03-24T00:08:43;6.80;;;4.80;;
57297;SDS011;43147;50.972;18.210;2023-03-24T00:11:12;9.20;;;5.20;;
57297;SDS011;43147;50.972;18.210;2023-03-24T00:13:39;11.00;;;5.10;;
57297;SDS011;43147;50.972;18.210;2023-03-24T00:16:06;7.90;;;5.40;;
57297;SDS011;43147;50.972;18.210;2023-03-24T00:18:34;8.00;;;5.00;;
57297;SDS011;43147;50.972;18.210;2023-03-24T00:21:02;6.80;;;4.30;;
57297;SDS011;43147;50.972;18.210;2023-03-24T00:23:29;7.60;;;4.70;;
57297;SDS011;43147;50.972;18.210;2023-03-24T00:26:07;7.30;;;4.40;;
57297;SDS011;43147;50.972;18.210;2023-03-24T00:28:40;6.20;;;4.30;;
57297;SDS011;43147;50.972;18.210;2023-03-24T00:31:08;9.70;;;5.10;;
57297;SDS011;43147;50.972;18.210;2023-03-24T00:33:34;7.60;;;5.00;;
57297;SDS011;43147;50.972;18.210;2023-03-24T00:36:02;8.40;;;4.20;;
57297;SDS011;43147;50.972;18.210;2023-03-24T00:38:30;6.80;;;4.70;;
57297;SDS011;43147;50.972;18.210;2023-03-24T00:40:56;10.20;;;4.70;;
57297;SDS011;43147;50.972;18.210;2023-03-24T00:43:23;6.80;;;4.80;;
57297;SDS011;43147;50.972;18.210;2023-03-24T00:45:49;8.50;;;4.50;;
57297;SDS011;43147;50.972;18.210;2023-03-24T00:48:17;12.90;;;4.60;;
57297;SDS011;43147;50.972;18.210;2023-03-24T00:50:45;7.90;;;5.10;;
57297;SDS011;43147;50.972;18.210;2023-03-24T00:53:13;6.20;;;4.50;;
57297;SDS011;43147;50.972;18.210;2023-03-24T00:55:40;7.30;;;4.10;;
57297;SDS011;43147;50.972;18.210;2023-03-24T00:58:11;6.60;;;4.20;;
57297;SDS011;43147;50.972;18.210;2023-03-24T01:00:44;8.30;;;3.80;;
57297;SDS011;43147;50.972;18.210;2023-03-24T01:03:11;6.60;;;3.90;;
57297;SDS011;43147;50.972;18.210;2023-03-24T01:05:38;5.40;;;4.00;;
57297;SDS011;43147;50.972;18.210;2023-03-24T01:08:06;5.60;;;3.90;;
57297;SDS011;43147;50.972;18.210;2023-03-24T01:10:34;6.20;;;4.10;;
57297;SDS011;43147;50.972;18.210;2023-03-24T01:13:06;8.10;;;3.50;;
57297;SDS011;43147;50.972;18.210;2023-03-24T01:15:32;4.90;;;3.50;;
57297;SDS011;43147;50.972;18.210;2023-03-24T01:18:02;6.00;;;3.80;;
57297;SDS011;43147;50.972;18.210;2023-03-24T01:20:28;4.10;;;3.70;;
57297;SDS011;43147;50.972;18.210;2023-03-24T01:23:01;5.30;;;3.70;;
57297;SDS011;43147;50.972;18.210;2023-03-24T01:25:29;4.30;;;3.30;;
57297;SDS011;43147;50.972;18.210;2023-03-24T01:27:55;7.10;;;3.80;;
57297;SDS011;43147;50.972;18.210;2023-03-24T01:30:22;5.20;;;3.40;;
57297;SDS011;43147;50.972;18.210;2023-03-24T01:32:50;5.20;;;3.20;;
57297;SDS011;43147;50.972;18.210;2023-03-24T01:35:17;4.60;;;3.70;;
57297;SDS011;43147;50.972;18.210;2023-03-24T01:37:44;6.30;;;4.20;;
57297;SDS011;43147;50.972;18.210;2023-03-24T01:40:11;4.30;;;3.70;;
57297;SDS011;43147;50.972;18.210;2023-03-24T01:42:45;5.80;;;3.90;;
57297;SDS011;43147;50.972;18.210;2023-03-24T01:48:05;6.80;;;4.10;;
57297;SDS011;43147;50.972;18.210;2023-03-24T01:50:32;6.60;;;3.90;;
57297;SDS011;43147;50.972;18.210;2023-03-24T01:52:58;6.60;;;3.60;;
57297;SDS011;43147;50.972;18.210;2023-03-24T01:55:25;4.90;;;3.60;;
57297;SDS011;43147;50.972;18.210;2023-03-24T01:57:54;5.90;;;3.70;;
57297;SDS011;43147;50.972;18.210;2023-03-24T02:00:21;7.60;;;3.80;;
57297;SDS011;43147;50.972;18.210;2023-03-24T02:02:48;8.40;;;3.70;;
57297;SDS011;43147;50.972;18.210;2023-03-24T02:05:20;6.80;;;4.00;;
57297;SDS011;43147;50.972;18.210;2023-03-24T02:10:30;4.70;;;3.50;;
57297;SDS011;43147;50.972;18.210;2023-03-24T02:12:58;8.60;;;4.10;;
57297;SDS011;43147;50.972;18.210;2023-03-24T02:15:24;6.80;;;3.70;;
57297;SDS011;43147;50.972;18.210;2023-03-24T02:26:30;5.00;;;3.40;;
57297;SDS011;43147;50.972;18.210;2023-03-24T02:35:16;5.60;;;3.50;;
57297;SDS011;43147;50.972;18.210;2023-03-24T02:40:39;4.50;;;3.10;;
57297;SDS011;43147;50.972;18.210;2023-03-24T02:57:03;6.30;;;3.70;;
57297;SDS011;43147;50.972;18.210;2023-03-24T02:59:35;5.10;;;4.00;;
57297;SDS011;43147;50.972;18.210;2023-03-24T03:02:07;6.60;;;3.80;;
57297;SDS011;43147;50.972;18.210;2023-03-24T03:04:46;7.30;;;3.90;;
57297;SDS011;43147;50.972;18.210;2023-03-24T03:07:17;7.50;;;3.90;;
57297;SDS011;43147;50.972;18.210;2023-03-24T03:10:02;6.80;;;4.20;;
57297;SDS011;43147;50.972;18.210;2023-03-24T03:12:31;4.70;;;4.10;;
57297;SDS011;43147;50.972;18.210;2023-03-24T03:15:00;6.10;;;4.20;;
57297;SDS011;43147;50.972;18.210;2023-03-24T03:17:29;5.50;;;3.90;;
57297;SDS011;43147;50.972;18.210;2023-03-24T03:20:07;9.30;;;3.10;;
57297;SDS011;43147;50.972;18.210;2023-03-24T03:22:40;5.70;;;3.30;;
57297;SDS011;43147;50.972;18.210;2023-03-24T03:25:10;5.90;;;3.30;;
57297;SDS011;43147;50.972;18.210;2023-03-24T03:27:37;5.10;;;3.30;;
57297;SDS011;43147;50.972;18.210;2023-03-24T03:30:07;3.90;;;3.20;;
57297;SDS011;43147;50.972;18.210;2023-03-24T03:32:49;5.40;;;3.30;;
57297;SDS011;43147;50.972;18.210;2023-03-24T03:35:24;4.50;;;3.00;;
57297;SDS011;43147;50.972;18.210;2023-03-24T03:38:05;5.60;;;3.30;;
57297;SDS011;43147;50.972;18.210;2023-03-24T03:40:37;3.80;;;3.00;;
57297;SDS011;43147;50.972;18.210;2023-03-24T03:43:07;6.80;;;3.60;;
57297;SDS011;43147;50.972;18.210;2023-03-24T03:45:32;5.60;;;3.50;;
57297;SDS011;43147;50.972;18.210;2023-03-24T03:47:59;4.50;;;3.00;;
57297;SDS011;43147;50.972;18.210;2023-03-24T03:50:26;4.80;;;3.00;;
57297;SDS011;43147;50.972;18.210;2023-03-24T03:52:52;5.70;;;3.40;;
57297;SDS011;43147;50.972;18.210;2023-03-24T03:55:18;4.30;;;3.10;;
57297;SDS011;43147;50.972;18.210;2023-03-24T03:57:44;4.50;;;3.30;;
57297;SDS011;43147;50.972;18.210;2023-03-24T04:00:17;7.00;;;3.40;;
57297;SDS011;43147;50.972;18.210;2023-03-24T04:02:48;6.70;;;2.90;;
57297;SDS011;43147;50.972;18.210;2023-03-24T04:05:35;8.90;;;4.10;;
57297;SDS011;43147;50.972;18.210;2023-03-24T04:08:05;4.40;;;3.10;;
57297;SDS011;43147;50.972;18.210;2023-03-24T04:10:54;7.20;;;3.90;;
57297;SDS011;43147;50.972;18.210;2023-03-24T04:22:05;12.50;;;4.20;;
57297;SDS011;43147;50.972;18.210;2023-03-24T04:24:39;5.40;;;3.60;;
57297;SDS011;43147;50.972;18.210;2023-03-24T04:33:02;9.00;;;4.10;;
57297;SDS011;43147;50.972;18.210;2023-03-24T04:35:32;6.80;;;4.50;;
57297;SDS011;43147;50.972;18.210;2023-03-24T04:38:10;9.70;;;5.00;;
57297;SDS011;43147;50.972;18.210;2023-03-24T04:40:41;5.50;;;4.20;;
57297;SDS011;43147;50.972;18.210;2023-03-24T04:43:11;11.20;;;4.90;;
57297;SDS011;43147;50.972;18.210;2023-03-24T04:45:38;8.40;;;4.80;;
57297;SDS011;43147;50.972;18.210;2023-03-24T04:48:05;8.30;;;5.60;;
57297;SDS011;43147;50.972;18.210;2023-03-24T04:50:36;7.20;;;5.30;;
57297;SDS011;43147;50.972;18.210;2023-03-24T04:53:07;6.80;;;5.00;;
57297;SDS011;43147;50.972;18.210;2023-03-24T04:58:17;6.30;;;5.10;;
57297;SDS011;43147;50.972;18.210;2023-03-24T05:00:46;8.40;;;6.50;;
57297;SDS011;43147;50.972;18.210;2023-03-24T05:03:13;6.10;;;5.50;;
57297;SDS011;43147;50.972;18.210;2023-03-24T05:05:40;9.70;;;5.90;;
57297;SDS011;43147;50.972;18.210;2023-03-24T05:08:10;6.30;;;5.20;;
57297;SDS011;43147;50.972;18.210;2023-03-24T05:10:36;7.50;;;5.90;;
57297;SDS011;43147;50.972;18.210;2023-03-24T05:13:02;13.40;;;6.90;;
57297;SDS011;43147;50.972;18.210;2023-03-24T05:15:29;11.70;;;6.40;;
57297;SDS011;43147;50.972;18.210;2023-03-24T05:17:54;13.00;;;7.20;;
57297;SDS011;43147;50.972;18.210;2023-03-24T05:20:21;9.60;;;6.60;;
57297;SDS011;43147;50.972;18.210;2023-03-24T05:22:47;12.80;;;7.40;;
57297;SDS011;43147;50.972;18.210;2023-03-24T05:25:15;11.80;;;8.20;;
57297;SDS011;43147;50.972;18.210;2023-03-24T05:27:41;10.50;;;8.70;;
57297;SDS011;43147;50.972;18.210;2023-03-24T05:30:07;10.80;;;7.20;;
57297;SDS011;43147;50.972;18.210;2023-03-24T05:32:33;12.30;;;7.30;;
57297;SDS011;43147;50.972;18.210;2023-03-24T05:34:59;9.50;;;6.70;;
57297;SDS011;43147;50.972;18.210;2023-03-24T05:37:25;11.10;;;7.50;;
57297;SDS011;43147;50.972;18.210;2023-03-24T05:39:52;11.10;;;6.60;;
57297;SDS011;43147;50.972;18.210;2023-03-24T05:42:18;11.20;;;6.30;;
57297;SDS011;43147;50.972;18.210;2023-03-24T05:44:44;9.50;;;5.80;;
57297;SDS011;43147;50.972;18.210;2023-03-24T05:47:11;12.30;;;6.40;;
57297;SDS011;43147;50.972;18.210;2023-03-24T05:49:43;7.90;;;6.00;;
57297;SDS011;43147;50.972;18.210;2023-03-24T05:52:09;8.40;;;5.80;;
57297;SDS011;43147;50.972;18.210;2023-03-24T05:54:35;8.00;;;6.00;;
57297;SDS011;43147;50.972;18.210;2023-03-24T05:57:04;7.60;;;6.30;;
57297;SDS011;43147;50.972;18.210;2023-03-24T05:59:32;9.20;;;6.20;;
57297;SDS011;43147;50.972;18.210;2023-03-24T06:01:58;9.30;;;6.40;;
57297;SDS011;43147;50.972;18.210;2023-03-24T06:04:25;12.70;;;7.30;;
57297;SDS011;43147;50.972;18.210;2023-03-24T06:06:54;12.50;;;7.90;;
57297;SDS011;43147;50.972;18.210;2023-03-24T06:09:28;10.10;;;7.90;;
57297;SDS011;43147;50.972;18.210;2023-03-24T06:11:58;16.40;;;9.40;;
57297;SDS011;43147;50.972;18.210;2023-03-24T06:14:24;10.60;;;8.80;;
57297;SDS011;43147;50.972;18.210;2023-03-24T06:16:50;14.50;;;9.40;;
57297;SDS011;43147;50.972;18.210;2023-03-24T06:19:16;11.70;;;8.70;;
57297;SDS011;43147;50.972;18.210;2023-03-24T06:21:43;13.30;;;11.60;;
57297;SDS011;43147;50.972;18.210;2023-03-24T06:24:09;14.00;;;10.50;;
57297;SDS011;43147;50.972;18.210;2023-03-24T06:26:39;10.60;;;8.70;;
57297;SDS011;43147;50.972;18.210;2023-03-24T06:29:07;11.10;;;8.20;;
57297;SDS011;43147;50.972;18.210;2023-03-24T06:31:33;9.80;;;8.40;;
57297;SDS011;43147;50.972;18.210;2023-03-24T06:34:00;10.40;;;7.70;;
57297;SDS011;43147;50.972;18.210;2023-03-24T06:36:25;9.60;;;8.00;;
57297;SDS011;43147;50.972;18.210;2023-03-24T06:38:51;10.30;;;8.00;;
57297;SDS011;43147;50.972;18.210;2023-03-24T06:41:17;8.70;;;7.60;;
57297;SDS011;43147;50.972;18.210;2023-03-24T06:43:43;8.60;;;7.20;;
57297;SDS011;43147;50.972;18.210;2023-03-24T06:46:09;9.70;;;7.30;;
57297;SDS011;43147;50.972;18.210;2023-03-24T06:48:35;8.90;;;7.40;;
57297;SDS011;43147;50.972;18.210;2023-03-24T06:51:01;9.80;;;7.60;;
57297;SDS011;43147;50.972;18.210;2023-03-24T06:53:26;13.90;;;7.70;;
57297;SDS011;43147;50.972;18.210;2023-03-24T06:55:52;13.50;;;7.50;;
57297;SDS011;43147;50.972;18.210;2023-03-24T06:58:18;11.50;;;8.80;;
57297;SDS011;43147;50.972;18.210;2023-03-24T07:00:44;9.10;;;7.50;;
57297;SDS011;43147;50.972;18.210;2023-03-24T07:03:11;12.10;;;7.40;;
57297;SDS011;43147;50.972;18.210;2023-03-24T07:05:38;12.30;;;8.20;;
57297;SDS011;43147;50.972;18.210;2023-03-24T07:08:08;7.90;;;6.80;;
57297;SDS011;43147;50.972;18.210;2023-03-24T07:10:34;11.40;;;7.00;;
57297;SDS011;43147;50.972;18.210;2023-03-24T07:13:00;14.10;;;7.10;;
57297;SDS011;43147;50.972;18.210;2023-03-24T07:15:28;6.20;;;5.60;;
57297;SDS011;43147;50.972;18.210;2023-03-24T07:17:54;6.80;;;6.00;;
57297;SDS011;43147;50.972;18.210;2023-03-24T07:20:20;9.50;;;6.10;;
57297;SDS011;43147;50.972;18.210;2023-03-24T07:22:46;9.00;;;6.50;;
57297;SDS011;43147;50.972;18.210;2023-03-24T07:25:12;10.20;;;5.70;;
57297;SDS011;43147;50.972;18.210;2023-03-24T07:27:39;11.10;;;6.20;;
57297;SDS011;43147;50.972;18.210;2023-03-24T07:30:06;7.10;;;6.20;;
57297;SDS011;43147;50.972;18.210;2023-03-24T07:32:33;6.20;;;5.60;;
57297;SDS011;43147;50.972;18.210;2023-03-24T07:35:06;6.70;;;5.70;;
57297;SDS011;43147;50.972;18.210;2023-03-24T07:37:36;6.10;;;5.50;;
57297;SDS011;43147;50.972;18.210;2023-03-24T07:40:02;7.30;;;4.40;;
57297;SDS011;43147;50.972;18.210;2023-03-24T07:42:35;6.70;;;5.10;;
57297;SDS011;43147;50.972;18.210;2023-03-24T07:45:01;6.70;;;5.20;;
57297;SDS011;43147;50.972;18.210;2023-03-24T07:47:26;6.60;;;4.90;;
57297;SDS011;43147;50.972;18.210;2023-03-24T07:49:52;7.00;;;4.60;;
57297;SDS011;43147;50.972;18.210;2023-03-24T07:52:18;5.90;;;4.80;;
57297;SDS011;43147;50.972;18.210;2023-03-24T07:54:43;7.60;;;4.70;;
57297;SDS011;43147;50.972;18.210;2023-03-24T07:57:09;5.50;;;4.60;;
57297;SDS011;43147;50.972;18.210;2023-03-24T07:59:35;6.10;;;4.70;;
57297;SDS011;43147;50.972;18.210;2023-03-24T08:02:01;4.80;;;4.30;;
57297;SDS011;43147;50.972;18.210;2023-03-24T08:04:26;6.50;;;4.40;;
57297;SDS011;43147;50.972;18.210;2023-03-24T08:06:52;6.10;;;5.40;;
57297;SDS011;43147;50.972;18.210;2023-03-24T08:09:18;6.50;;;5.50;;
57297;SDS011;43147;50.972;18.210;2023-03-24T08:11:44;7.90;;;4.80;;
57297;SDS011;43147;50.972;18.210;2023-03-24T08:14:10;6.90;;;5.30;;
57297;SDS011;43147;50.972;18.210;2023-03-24T08:16:35;7.80;;;5.60;;
57297;SDS011;43147;50.972;18.210;2023-03-24T08:19:03;7.20;;;5.30;;
57297;SDS011;43147;50.972;18.210;2023-03-24T08:21:29;8.60;;;5.40;;
57297;SDS011;43147;50.972;18.210;2023-03-24T08:23:55;7.90;;;5.90;;
57297;SDS011;43147;50.972;18.210;2023-03-24T08:26:21;9.60;;;5.80;;
57297;SDS011;43147;50.972;18.210;2023-03-24T08:28:51;8.50;;;5.30;;
57297;SDS011;43147;50.972;18.210;2023-03-24T08:31:17;10.70;;;5.40;;
57297;SDS011;43147;50.972;18.210;2023-03-24T08:33:43;5.00;;;4.50;;
57297;SDS011;43147;50.972;18.210;2023-03-24T08:36:09;7.50;;;4.20;;
57297;SDS011;43147;50.972;18.210;2023-03-24T08:38:35;5.90;;;3.80;;
57297;SDS011;43147;50.972;18.210;2023-03-24T08:41:03;7.50;;;3.80;;
57297;SDS011;43147;50.972;18.210;2023-03-24T08:43:31;6.30;;;4.70;;
57297;SDS011;43147;50.972;18.210;2023-03-24T08:45:59;6.20;;;4.00;;
57297;SDS011;43147;50.972;18.210;2023-03-24T08:48:26;8.60;;;4.60;;
57297;SDS011;43147;50.972;18.210;2023-03-24T08:50:52;6.20;;;4.30;;
57297;SDS011;43147;50.972;18.210;2023-03-24T08:53:18;5.40;;;4.30;;
57297;SDS011;43147;50.972;18.210;2023-03-24T08:55:44;5.00;;;4.40;;
57297;SDS011;43147;50.972;18.210;2023-03-24T08:58:14;7.40;;;4.00;;
57297;SDS011;43147;50.972;18.210;2023-03-24T09:00:41;4.30;;;3.90;;
57297;SDS011;43147;50.972;18.210;2023-03-24T09:03:13;5.50;;;3.80;;
57297;SDS011;43147;50.972;18.210;2023-03-24T09:05:43;4.40;;;3.90;;
57297;SDS011;43147;50.972;18.210;2023-03-24T09:08:11;7.30;;;3.90;;
57297;SDS011;43147;50.972;18.210;2023-03-24T09:10:37;4.20;;;3.50;;
57297;SDS011;43147;50.972;18.210;2023-03-24T09:13:04;4.70;;;3.80;;
57297;SDS011;43147;50.972;18.210;2023-03-24T09:15:30;4.30;;;3.40;;
57297;SDS011;43147;50.972;18.210;2023-03-24T09:17:56;5.30;;;3.50;;
57297;SDS011;43147;50.972;18.210;2023-03-24T09:20:22;7.10;;;4.50;;
57297;SDS011;43147;50.972;18.210;2023-03-24T09:22:47;4.90;;;3.80;;
57297;SDS011;43147;50.972;18.210;2023-03-24T09:25:17;6.40;;;3.70;;
57297;SDS011;43147;50.972;18.210;2023-03-24T09:27:43;4.50;;;3.80;;
57297;SDS011;43147;50.972;18.210;2023-03-24T09:30:10;4.90;;;4.10;;
57297;SDS011;43147;50.972;18.210;2023-03-24T09:32:38;4.80;;;3.70;;
57297;SDS011;43147;50.972;18.210;2023-03-24T09:35:04;6.20;;;4.00;;
57297;SDS011;43147;50.972;18.210;2023-03-24T09:37:30;7.80;;;4.00;;
57297;SDS011;43147;50.972;18.210;2023-03-24T09:39:57;7.80;;;4.20;;
57297;SDS011;43147;50.972;18.210;2023-03-24T09:42:25;6.30;;;3.60;;
57297;SDS011;43147;50.972;18.210;2023-03-24T09:45:05;8.10;;;4.60;;
57297;SDS011;43147;50.972;18.210;2023-03-24T09:50:28;6.10;;;4.90;;
57297;SDS011;43147;50.972;18.210;2023-03-24T09:53:06;5.70;;;5.10;;
57297;SDS011;43147;50.972;18.210;2023-03-24T09:55:49;6.30;;;5.10;;
57297;SDS011;43147;50.972;18.210;2023-03-24T09:58:15;7.40;;;4.20;;
57297;SDS011;43147;50.972;18.210;2023-03-24T10:00:42;7.20;;;4.30;;
57297;SDS011;43147;50.972;18.210;2023-03-24T10:03:21;7.90;;;4.20;;
57297;SDS011;43147;50.972;18.210;2023-03-24T10:08:35;6.70;;;3.60;;
57297;SDS011;43147;50.972;18.210;2023-03-24T10:11:03;3.60;;;3.30;;
57297;SDS011;43147;50.972;18.210;2023-03-24T10:13:39;7.10;;;3.50;;
57297;SDS011;43147;50.972;18.210;2023-03-24T10:16:29;3.30;;;3.00;;
57297;SDS011;43147;50.972;18.210;2023-03-24T10:22:29;6.60;;;2.70;;
57297;SDS011;43147;50.972;18.210;2023-03-24T10:27:40;4.20;;;3.20;;
57297;SDS011;43147;50.972;18.210;2023-03-24T10:30:16;8.10;;;2.70;;
57297;SDS011;43147;50.972;18.210;2023-03-24T10:32:56;6.80;;;2.50;;
57297;SDS011;43147;50.972;18.210;2023-03-24T10:35:29;9.10;;;2.40;;
57297;SDS011;43147;50.972;18.210;2023-03-24T10:38:01;5.00;;;2.80;;
57297;SDS011;43147;50.972;18.210;2023-03-24T10:40:42;4.50;;;2.90;;
57297;SDS011;43147;50.972;18.210;2023-03-24T10:43:08;8.10;;;2.70;;
57297;SDS011;43147;50.972;18.210;2023-03-24T10:45:35;4.10;;;2.20;;
57297;SDS011;43147;50.972;18.210;2023-03-24T10:48:01;6.30;;;2.20;;
57297;SDS011;43147;50.972;18.210;2023-03-24T10:50:29;8.80;;;2.50;;
57297;SDS011;43147;50.972;18.210;2023-03-24T10:52:57;2.30;;;1.80;;
57297;SDS011;43147;50.972;18.210;2023-03-24T10:55:26;5.40;;;2.10;;
57297;SDS011;43147;50.972;18.210;2023-03-24T10:57:57;15.10;;;2.70;;
57297;SDS011;43147;50.972;18.210;2023-03-24T11:00:27;10.40;;;2.80;;
57297;SDS011;43147;50.972;18.210;2023-03-24T11:05:33;3.10;;;2.30;;
57297;SDS011;43147;50.972;18.210;2023-03-24T11:08:17;10.60;;;2.30;;
57297;SDS011;43147;50.972;18.210;2023-03-24T11:10:51;8.50;;;2.40;;
57297;SDS011;43147;50.972;18.210;2023-03-24T11:13:17;4.00;;;2.10;;
57297;SDS011;43147;50.972;18.210;2023-03-24T11:15:55;8.80;;;2.10;;
57297;SDS011;43147;50.972;18.210;2023-03-24T11:18:54;3.90;;;2.40;;
57297;SDS011;43147;50.972;18.210;2023-03-24T11:21:20;12.30;;;3.30;;
57297;SDS011;43147;50.972;18.210;2023-03-24T11:23:46;7.60;;;5.00;;
57297;SDS011;43147;50.972;18.210;2023-03-24T11:28:49;4.70;;;2.90;;
57297;SDS011;43147;50.972;18.210;2023-03-24T11:31:20;20.20;;;3.30;;
57297;SDS011;43147;50.972;18.210;2023-03-24T11:33:53;4.40;;;2.60;;
57297;SDS011;43147;50.972;18.210;2023-03-24T11:39:10;4.30;;;3.20;;
57297;SDS011;43147;50.972;18.210;2023-03-24T11:41:38;7.00;;;2.80;;
57297;SDS011;43147;50.972;18.210;2023-03-24T11:44:17;10.30;;;3.10;;
57297;SDS011;43147;50.972;18.210;2023-03-24T11:46:46;5.60;;;2.70;;
57297;SDS011;43147;50.972;18.210;2023-03-24T11:49:17;3.30;;;2.10;;
57297;SDS011;43147;50.972;18.210;2023-03-24T11:51:44;5.40;;;2.70;;
57297;SDS011;43147;50.972;18.210;2023-03-24T11:54:12;5.70;;;2.70;;
57297;SDS011;43147;50.972;18.210;2023-03-24T11:56:44;2.90;;;2.60;;
57297;SDS011;43147;50.972;18.210;2023-03-24T12:01:50;6.10;;;2.80;;
57297;SDS011;43147;50.972;18.210;2023-03-24T12:18:21;5.80;;;3.30;;
57297;SDS011;43147;50.972;18.210;2023-03-24T12:23:56;7.40;;;4.90;;
57297;SDS011;43147;50.972;18.210;2023-03-24T12:35:38;4.20;;;3.00;;
57297;SDS011;43147;50.972;18.210;2023-03-24T12:37:51;7.60;;;3.50;;
57297;SDS011;43147;50.972;18.210;2023-03-24T12:57:03;5.50;;;3.60;;
57297;SDS011;43147;50.972;18.210;2023-03-24T13:04:48;6.20;;;3.60;;
57297;SDS011;43147;50.972;18.210;2023-03-24T13:07:18;5.10;;;3.00;;
57297;SDS011;43147;50.972;18.210;2023-03-24T13:12:26;8.00;;;3.80;;
57297;SDS011;43147;50.972;18.210;2023-03-24T13:20:15;5.80;;;4.50;;
57297;SDS011;43147;50.972;18.210;2023-03-24T13:22:44;5.60;;;3.80;;
57297;SDS011;43147;50.972;18.210;2023-03-24T13:27:58;6.70;;;4.10;;
57297;SDS011;43147;50.972;18.210;2023-03-24T13:30:32;6.80;;;4.00;;
57297;SDS011;43147;50.972;18.210;2023-03-24T13:33:13;6.10;;;4.30;;
57297;SDS011;43147;50.972;18.210;2023-03-24T13:38:35;5.10;;;4.30;;
57297;SDS011;43147;50.972;18.210;2023-03-24T13:41:11;8.10;;;5.10;;
57297;SDS011;43147;50.972;18.210;2023-03-24T13:43:46;9.00;;;5.30;;
57297;SDS011;43147;50.972;18.210;2023-03-24T13:46:13;5.60;;;4.80;;
57297;SDS011;43147;50.972;18.210;2023-03-24T13:48:42;6.80;;;5.60;;
57297;SDS011;43147;50.972;18.210;2023-03-24T13:51:16;10.10;;;5.60;;
57297;SDS011;43147;50.972;18.210;2023-03-24T13:53:57;6.60;;;5.30;;
57297;SDS011;43147;50.972;18.210;2023-03-24T13:59:31;9.50;;;6.00;;
57297;SDS011;43147;50.972;18.210;2023-03-24T14:12:53;11.70;;;7.90;;
57297;SDS011;43147;50.972;18.210;2023-03-24T14:15:25;8.90;;;7.40;;
57297;SDS011;43147;50.972;18.210;2023-03-24T14:17:53;9.30;;;8.10;;
57297;SDS011;43147;50.972;18.210;2023-03-24T14:20:27;7.80;;;6.50;;
57297;SDS011;43147;50.972;18.210;2023-03-24T14:22:57;7.60;;;6.70;;
57297;SDS011;43147;50.972;18.210;2023-03-24T14:25:30;11.60;;;6.10;;
57297;SDS011;43147;50.972;18.210;2023-03-24T14:28:07;9.70;;;6.20;;
57297;SDS011;43147;50.972;18.210;2023-03-24T14:30:53;6.80;;;6.00;;
57297;SDS011;43147;50.972;18.210;2023-03-24T14:33:24;8.80;;;6.20;;
57297;SDS011;43147;50.972;18.210;2023-03-24T14:35:50;8.10;;;6.10;;
57297;SDS011;43147;50.972;18.210;2023-03-24T14:38:36;9.30;;;6.50;;
57297;SDS011;43147;50.972;18.210;2023-03-24T14:41:06;12.50;;;7.20;;
57297;SDS011;43147;50.972;18.210;2023-03-24T14:48:55;10.50;;;9.00;;
57297;SDS011;43147;50.972;18.210;2023-03-24T14:54:33;12.40;;;10.70;;
57297;SDS011;43147;50.972;18.210;2023-03-24T14:57:27;10.10;;;7.50;;
57297;SDS011;43147;50.972;18.210;2023-03-24T15:14:20;4.90;;;4.40;;
57297;SDS011;43147;50.972;18.210;2023-03-24T15:16:55;5.40;;;4.00;;
57297;SDS011;43147;50.972;18.210;2023-03-24T15:19:26;4.20;;;3.70;;
57297;SDS011;43147;50.972;18.210;2023-03-24T15:22:04;4.80;;;3.40;;
57297;SDS011;43147;50.972;18.210;2023-03-24T15:24:35;4.20;;;3.80;;
57297;SDS011;43147;50.972;18.210;2023-03-24T15:29:30;9.10;;;4.10;;
57297;SDS011;43147;50.972;18.210;2023-03-24T15:31:57;14.90;;;12.40;;
57297;SDS011;43147;50.972;18.210;2023-03-24T15:34:33;5.40;;;4.40;;
57297;SDS011;43147;50.972;18.210;2023-03-24T15:37:02;5.20;;;4.50;;
57297;SDS011;43147;50.972;18.210;2023-03-24T15:39:33;15.90;;;12.00;;
57297;SDS011;43147;50.972;18.210;2023-03-24T15:42:07;6.80;;;6.10;;
57297;SDS011;43147;50.972;18.210;2023-03-24T15:44:37;5.10;;;3.90;;
57297;SDS011;43147;50.972;18.210;2023-03-24T15:47:05;6.30;;;5.70;;
57297;SDS011;43147;50.972;18.210;2023-03-24T15:49:59;7.70;;;4.80;;
57297;SDS011;43147;50.972;18.210;2023-03-24T15:57:50;5.10;;;3.90;;
57297;SDS011;43147;50.972;18.210;2023-03-24T16:00:22;9.00;;;7.30;;
57297;SDS011;43147;50.972;18.210;2023-03-24T16:02:52;10.50;;;7.00;;
57297;SDS011;43147;50.972;18.210;2023-03-24T16:07:55;7.90;;;5.00;;
57297;SDS011;43147;50.972;18.210;2023-03-24T16:10:33;6.50;;;5.10;;
57297;SDS011;43147;50.972;18.210;2023-03-24T16:15:39;5.40;;;3.60;;
57297;SDS011;43147;50.972;18.210;2023-03-24T16:18:16;3.30;;;2.90;;
57297;SDS011;43147;50.972;18.210;2023-03-24T16:20:44;4.10;;;3.50;;
57297;SDS011;43147;50.972;18.210;2023-03-24T16:23:09;3.60;;;3.20;;
57297;SDS011;43147;50.972;18.210;2023-03-24T16:25:36;7.00;;;5.20;;
57297;SDS011;43147;50.972;18.210;2023-03-24T16:28:02;10.10;;;5.50;;
57297;SDS011;43147;50.972;18.210;2023-03-24T16:30:28;10.30;;;7.20;;
57297;SDS011;43147;50.972;18.210;2023-03-24T16:32:55;8.40;;;5.70;;
57297;SDS011;43147;50.972;18.210;2023-03-24T16:35:21;8.20;;;6.20;;
57297;SDS011;43147;50.972;18.210;2023-03-24T16:37:46;6.40;;;4.80;;
57297;SDS011;43147;50.972;18.210;2023-03-24T16:40:33;8.40;;;6.00;;
57297;SDS011;43147;50.972;18.210;2023-03-24T16:42:58;6.40;;;4.50;;
57297;SDS011;43147;50.972;18.210;2023-03-24T16:45:26;5.50;;;4.70;;
57297;SDS011;43147;50.972;18.210;2023-03-24T16:47:53;10.50;;;6.70;;
57297;SDS011;43147;50.972;18.210;2023-03-24T16:50:21;17.20;;;9.60;;
57297;SDS011;43147;50.972;18.210;2023-03-24T16:52:48;21.40;;;10.80;;
57297;SDS011;43147;50.972;18.210;2023-03-24T16:55:14;18.90;;;9.50;;
57297;SDS011;43147;50.972;18.210;2023-03-24T16:57:40;11.70;;;7.40;;
57297;SDS011;43147;50.972;18.210;2023-03-24T17:00:06;17.00;;;9.30;;
57297;SDS011;43147;50.972;18.210;2023-03-24T17:02:35;13.60;;;8.10;;
57297;SDS011;43147;50.972;18.210;2023-03-24T17:05:08;16.70;;;9.60;;
57297;SDS011;43147;50.972;18.210;2023-03-24T17:07:43;12.50;;;7.70;;
57297;SDS011;43147;50.972;18.210;2023-03-24T17:10:09;13.50;;;8.60;;
57297;SDS011;43147;50.972;18.210;2023-03-24T17:12:35;14.10;;;8.60;;
57297;SDS011;43147;50.972;18.210;2023-03-24T17:15:01;15.10;;;7.90;;
57297;SDS011;43147;50.972;18.210;2023-03-24T17:17:26;10.90;;;7.30;;
57297;SDS011;43147;50.972;18.210;2023-03-24T17:19:52;10.80;;;6.90;;
57297;SDS011;43147;50.972;18.210;2023-03-24T17:22:18;13.40;;;7.60;;
57297;SDS011;43147;50.972;18.210;2023-03-24T17:24:43;11.90;;;7.20;;
57297;SDS011;43147;50.972;18.210;2023-03-24T17:27:11;10.50;;;5.00;;
57297;SDS011;43147;50.972;18.210;2023-03-24T17:29:39;5.70;;;4.50;;
57297;SDS011;43147;50.972;18.210;2023-03-24T17:32:04;8.30;;;5.10;;
57297;SDS011;43147;50.972;18.210;2023-03-24T17:34:30;8.20;;;4.70;;
57297;SDS011;43147;50.972;18.210;2023-03-24T17:36:56;6.00;;;4.70;;
57297;SDS011;43147;50.972;18.210;2023-03-24T17:39:22;6.80;;;3.70;;
57297;SDS011;43147;50.972;18.210;2023-03-24T17:41:47;7.20;;;5.40;;
57297;SDS011;43147;50.972;18.210;2023-03-24T17:44:13;7.50;;;5.70;;
57297;SDS011;43147;50.972;18.210;2023-03-24T17:46:39;11.70;;;5.30;;
57297;SDS011;43147;50.972;18.210;2023-03-24T17:49:04;7.00;;;6.30;;
57297;SDS011;43147;50.972;18.210;2023-03-24T17:51:31;8.50;;;6.40;;